Retour

Biscatrail

dimanche 30 novembre 2025Biscarrosse Plage, 40, FranceTrail

293 participants212 Femmes • 81 Hommes

5 licenciés (2%) • 288 non-licenciés (98%)

Temps moyen : 01:45:44

PositionNom/PrénomTps réelTps officielClubDossardCatégorieKm/hActions
1DAUCH ALAIN01:09:5001:09:52UAGM3031M8M (1 / 3)8.5
2DOUX FABRICE01:09:5701:09:57S L UA GUJAN MESTRAS3022M3M (1 / 11)8.5
3HARBONNIER HENRI01:13:3301:13:35UAGM3280M6M (1 / 14)8.1
4CLEMENCEAU REMI01:13:3401:13:36BO ATHLETISME3159M1M (1 / 5)8.1
5LHUILLIER ALAIN01:14:1601:14:19LES RANDONNEURS DES SABLES DU BORN3273M6M (2 / 14)8.0
6NUNES VARELA LAETITIA01:14:4901:14:49BISCARROSSE OLYMPIQUE3019M2F (1 / 27)8.0
7POEYDABAN ANNE-MARIE01:16:5901:17:003065M4F (1 / 34)7.7
8PETITJEAN PHILLIPPE01:18:5901:19:02LES RANDONNEURS DES SABLES DU BORN3253M4M (1 / 11)7.5
9LEVIGNEUR OLIVIER01:20:0001:20:073106M5M (1 / 16)7.5
10LEROY BRUNO01:20:2001:20:32LES RANDONNEURS DES SABLES DU BORN3264M5M (2 / 16)7.4
11FERRET JEAN-GUY01:20:4401:20:513103M2M (1 / 11)7.4
12MORGADO BEGONIA01:21:2801:21:29UAGM3279M6F (1 / 26)7.3
13GAUTHIER NATHALIE01:21:2801:21:30S L UA GUJAN MESTRAS3242M6F (2 / 26)7.3
14CARBON NATHALIE01:21:3901:21:40COURIR O TEICH3300M4F (2 / 34)7.3
15WIRTH ALAIN01:22:4501:22:59LES RANDONNEURS DES SABLES DU BORN3238M5M (3 / 16)7.2
16ANTOINE VINCENT01:22:5801:23:003164M3M (2 / 11)7.2
17LABAT JACQUES01:23:2201:23:25BISCARROSSE OLYMPIQUE3135M6M (3 / 14)7.1
18LEROY SYLVIE01:23:1301:23:33LES RANDONNEURS DES SABLES DU BORN3265M5F (1 / 30)7.2
19DEGEORGE LAURENT01:23:3901:23:41BISCARROSSE OLYMPIQUE3142M5M (4 / 16)7.1
20PHILIPPOT SANDRINE01:23:3801:23:41BISCARROSSE OLYMPIQUE3067M3F (1 / 26)7.1
21DUCHESNE THIERRY01:23:4001:23:413316M6M (4 / 14)7.1
22DUCHESNE SYLVIE01:23:4201:23:473315M5F (2 / 30)7.1
23PRIAMI PATRICK01:23:4901:23:513051M8M (2 / 3)7.1
24BABEAU MIREILLE01:24:2401:24:283134M7F (1 / 8)7.1
25DESJARIGES TIPHAINE01:24:4001:24:423313M1F (1 / 29)7.0
26AFFRE AMELIE01:25:4101:25:503146M1F (2 / 29)7.0
27VIGNAUD NICOLAS01:26:1901:26:273327M3M (3 / 11)6.9
28SCHLICHTER MARTINE01:26:2001:26:28RANDONNEURS DES SABLES DU BORN3228M5F (3 / 30)6.9
29BELLIARD CROISINNE01:27:0501:27:073321M2F (2 / 27)6.8
30CHATON LUDOVIC01:27:0701:27:083323M2M (2 / 11)6.8
31MORAND ISABELLE01:28:1001:28:12UAGM3236M6F (3 / 26)6.8
32PENCHENAT ADRIEN01:28:2801:28:553171M2M (3 / 11)6.7
33GIRARDIN CHRISTOPHE01:29:2801:29:313041M4M (2 / 11)6.7
34WIRTH MURIELLE01:29:4001:29:59MURIELLE4005M6F (4 / 26)6.6
35LEPOUDER SANDRINE01:29:3901:29:59LES RANDONNEURS DES SABLES DU BORN3290M5F (4 / 30)6.6
36RICHER FLORENCE01:29:3801:29:59LES RANDONNEURS DES SABLES DU BORN3254M5F (5 / 30)6.6
37REGNAULT VIRGINIE01:28:1101:29:593286M2F (3 / 27)6.8
38ROUGIER NOLWEN01:29:5701:30:013219SEF (1 / 7)6.6
39VERRIER CHRISTOPHE01:28:5001:30:113208M4M (3 / 11)6.7
40FLEURY SYLVIE01:30:0501:30:113105M4F (3 / 34)6.6
41BROSSARD CATHERINE01:30:0301:30:123050M4F (4 / 34)6.6
42CANDAU FRANCOISE01:30:2101:30:29ELAN ARMAGNAC1750M5F (6 / 30)6.6
43LACHIONDO/BRASSART MARTINE01:30:2901:30:32UAGM3147M6F (5 / 26)6.6
44BARRERO VIRGINIE01:30:4001:30:483305M2F (4 / 27)6.6
45ORSINI FRANCOISE01:30:5701:30:59S L UA GUJAN MESTRAS4004M5F (7 / 30)6.5
46DEWAILLY WENDY01:31:0801:31:123218M0F (1 / 15)6.5
47SOUCHET LAURENT01:31:1401:31:30COURIR A AUDENGE3127M6M (5 / 14)6.5
48CARAVEN JEROME01:31:3001:31:50MACADAM COLOMIERS3024M3M (4 / 11)6.5
49POILBLAN PATRICK01:31:2901:31:50MACADAM COLOMIERS57M6M (6 / 14)6.5
50GAUDE VALERIE01:31:4701:31:51S L UA GUJAN MESTRAS3220M4F (5 / 34)6.5

Nous utilisons Google Analytics pour mesurer l'audience du site. Acceptez-vous le dépôt de cookies de mesure d'audience ? Vous pouvez changer d'avis à tout moment via « Gestion des cookies » en bas de page. En savoir plus